International Virtual Aviation Organisation

Eastern Europe and Northern Asia MCD

 
UWUU 121130Z 03003MPS 300V080 9999 OVC040 17/06 Q1035 R32L/0///60 NOSIG
QNH:(hPa/inHg/mmHg)1035 / 30.56 / 776
QFE:(hPa/inHg/mmHg)1018 / 30.07 / 764
Temperature17
Dew Point6
Visibility> 10000
Weather
Cloud CoverOVC (4000);
Transition Altitude5000 ft.
Transition LevelFL60
SQUAWK